createdAt,value
2018-12-21T00:02:18.287Z,23.90
2018-12-21T00:04:45.893Z,23.60
2018-12-21T00:07:13.511Z,23.60
2018-12-21T00:09:41.423Z,24.00
2018-12-21T00:12:09.030Z,23.70
2018-12-21T00:14:36.634Z,23.70
2018-12-21T00:17:04.507Z,23.60
2018-12-21T00:19:32.109Z,23.50
2018-12-21T00:21:59.707Z,23.80
2018-12-21T00:24:27.343Z,23.60
2018-12-21T00:26:54.956Z,23.40
2018-12-21T00:29:22.557Z,23.60
2018-12-21T00:31:55.895Z,23.30
2018-12-21T00:34:29.134Z,23.10
2018-12-21T00:37:02.398Z,23.10
2018-12-21T00:39:35.620Z,23.00
2018-12-21T00:42:02.791Z,23.00
2018-12-21T00:44:32.423Z,22.80
2018-12-21T00:47:02.066Z,23.40
2018-12-21T00:49:29.663Z,23.40
2018-12-21T00:51:57.274Z,23.50
2018-12-21T00:54:24.915Z,23.80
2018-12-21T00:56:52.571Z,24.30
2018-12-21T00:59:20.219Z,24.40
2018-12-21T01:01:47.879Z,24.30
2018-12-21T01:04:15.486Z,24.20
2018-12-21T01:06:43.101Z,23.90
2018-12-21T01:09:10.733Z,23.70
2018-12-21T01:11:38.337Z,23.50
2018-12-21T01:14:05.951Z,23.30
2018-12-21T01:16:33.587Z,23.20
2018-12-21T01:19:01.195Z,23.10
2018-12-21T01:21:29.932Z,23.40
2018-12-21T01:23:57.558Z,23.40
2018-12-21T01:26:25.158Z,23.80
2018-12-21T01:28:52.771Z,23.80
2018-12-21T01:31:20.389Z,23.70
2018-12-21T01:33:47.998Z,23.50
2018-12-21T01:36:15.602Z,23.40
2018-12-21T01:38:43.856Z,23.30
2018-12-21T01:41:11.500Z,23.20
2018-12-21T01:43:39.114Z,23.10
2018-12-21T01:46:06.752Z,23.10
2018-12-21T01:48:34.369Z,23.10
2018-12-21T01:51:01.997Z,23.10
2018-12-21T01:53:29.648Z,23.10
2018-12-21T01:55:57.276Z,23.30
2018-12-21T01:58:24.884Z,24.20
2018-12-21T02:00:52.651Z,23.60
2018-12-21T02:03:20.260Z,23.80
2018-12-21T02:05:47.857Z,23.70
2018-12-21T02:08:15.488Z,23.60
2018-12-21T02:10:43.091Z,23.50
2018-12-21T02:13:10.708Z,23.40
2018-12-21T02:15:38.594Z,23.30
2018-12-21T02:18:06.315Z,24.00
2018-12-21T02:20:33.933Z,23.80
2018-12-21T02:23:01.567Z,23.60
2018-12-21T02:25:29.762Z,23.60
2018-12-21T02:27:58.304Z,23.60
2018-12-21T02:30:26.630Z,23.60
2018-12-21T02:32:54.262Z,23.50
2018-12-21T02:35:21.872Z,23.40
2018-12-21T02:37:49.825Z,23.30
2018-12-21T02:40:17.433Z,23.40
2018-12-21T02:42:45.049Z,23.40
2018-12-21T02:45:13.793Z,23.30
2018-12-21T02:47:41.484Z,23.30
2018-12-21T02:50:09.122Z,23.20
2018-12-21T02:52:36.768Z,23.20
2018-12-21T02:55:04.376Z,23.00
2018-12-21T02:57:32.001Z,22.90
2018-12-21T02:59:59.639Z,22.90
2018-12-21T03:02:27.267Z,22.80
2018-12-21T03:04:54.867Z,22.70
2018-12-21T03:07:22.592Z,22.70
2018-12-21T03:09:50.225Z,22.70
2018-12-21T03:12:17.852Z,22.70
2018-12-21T03:14:45.450Z,22.80
2018-12-21T03:17:13.233Z,22.90
2018-12-21T03:19:41.010Z,23.20
2018-12-21T03:22:14.607Z,23.50
2018-12-21T03:24:38.290Z,23.50
2018-12-21T03:27:05.919Z,23.80
2018-12-21T03:29:33.573Z,23.90
2018-12-21T03:32:01.209Z,23.90
2018-12-21T03:34:28.979Z,23.90
2018-12-21T03:36:56.668Z,23.70
2018-12-21T03:39:24.297Z,23.50
2018-12-21T03:41:51.903Z,23.40
2018-12-21T03:44:19.501Z,23.80
2018-12-21T03:46:47.150Z,23.30
2018-12-21T03:49:14.798Z,23.30
2018-12-21T03:51:42.495Z,23.70
2018-12-21T03:54:10.128Z,23.70
2018-12-21T03:56:37.748Z,24.40
2018-12-21T03:59:05.343Z,24.30
2018-12-21T04:01:32.970Z,24.20
2018-12-21T04:04:00.575Z,24.50
2018-12-21T04:06:28.185Z,24.60
2018-12-21T04:08:55.825Z,24.30
2018-12-21T04:11:23.432Z,24.30
2018-12-21T04:13:51.039Z,24.70
2018-12-21T04:16:18.667Z,24.90
2018-12-21T04:18:46.266Z,24.40
2018-12-21T04:21:13.872Z,24.50
2018-12-21T04:23:41.661Z,24.40
2018-12-21T04:26:09.258Z,24.10
2018-12-21T04:28:36.864Z,24.20
2018-12-21T04:31:04.482Z,24.10
2018-12-21T04:33:32.096Z,23.80
2018-12-21T04:35:59.701Z,23.60
2018-12-21T04:38:27.620Z,23.40
2018-12-21T04:40:55.232Z,23.30
2018-12-21T04:43:22.845Z,23.30
2018-12-21T04:45:50.479Z,23.30
2018-12-21T04:48:18.092Z,23.40
2018-12-21T04:50:45.714Z,23.50
2018-12-21T04:53:13.352Z,23.90
2018-12-21T04:55:40.953Z,23.80
2018-12-21T04:58:08.568Z,23.80
2018-12-21T05:00:36.207Z,23.60
2018-12-21T05:03:03.812Z,23.60
2018-12-21T05:05:31.413Z,23.80
2018-12-21T05:07:59.060Z,24.00
2018-12-21T05:10:26.671Z,23.80
2018-12-21T05:12:54.281Z,23.90
2018-12-21T05:15:21.916Z,23.80
2018-12-21T05:17:49.520Z,24.10
2018-12-21T05:20:17.115Z,24.10
2018-12-21T05:22:52.290Z,24.30
2018-12-21T05:25:14.391Z,24.10
2018-12-21T05:27:42.058Z,24.20
2018-12-21T05:30:09.659Z,24.00
2018-12-21T05:32:37.269Z,23.80
2018-12-21T05:35:04.948Z,23.70
2018-12-21T05:37:32.554Z,23.70
2018-12-21T05:40:00.167Z,23.80
2018-12-21T05:42:27.795Z,23.70
2018-12-21T05:44:55.406Z,23.60
2018-12-21T05:47:23.001Z,23.60
2018-12-21T05:49:50.633Z,23.60
2018-12-21T05:52:18.283Z,23.70
2018-12-21T05:54:45.891Z,23.80
2018-12-21T05:57:13.512Z,23.80
2018-12-21T05:59:41.112Z,23.90
2018-12-21T06:02:08.832Z,24.00
2018-12-21T06:04:36.572Z,24.10
2018-12-21T06:07:04.181Z,24.00
2018-12-21T06:09:31.784Z,23.90
2018-12-21T06:11:59.675Z,24.00
2018-12-21T06:14:27.277Z,24.00
2018-12-21T06:16:54.882Z,24.10
2018-12-21T06:19:22.518Z,25.20
2018-12-21T06:21:50.130Z,24.50
2018-12-21T06:31:03.080Z,24.40
2018-12-21T06:33:30.680Z,24.30
2018-12-21T06:35:58.406Z,24.00
2018-12-21T06:38:26.044Z,24.10
2018-12-21T06:40:53.673Z,24.50
2018-12-21T06:43:21.284Z,24.70
2018-12-21T06:45:48.921Z,24.40
2018-12-21T06:48:16.530Z,24.60
2018-12-21T06:50:44.225Z,24.40
2018-12-21T06:53:17.952Z,24.20
2018-12-21T06:55:41.499Z,24.20
2018-12-21T06:58:09.101Z,24.20
2018-12-21T07:00:38.225Z,24.10
2018-12-21T07:03:05.875Z,24.40
2018-12-21T07:05:33.598Z,24.20
2018-12-21T07:08:03.785Z,24.80
2018-12-21T07:10:32.764Z,24.50
2018-12-21T07:13:01.710Z,25.30
2018-12-21T07:15:29.966Z,24.90
2018-12-21T07:17:57.688Z,25.00
2018-12-21T07:20:26.440Z,24.60
2018-12-21T07:22:54.061Z,24.50
2018-12-21T07:25:21.894Z,25.50
2018-12-21T07:27:50.023Z,25.10
2018-12-21T07:30:17.623Z,25.00
2018-12-21T07:32:45.390Z,24.70
2018-12-21T07:35:13.000Z,25.10
2018-12-21T07:37:40.591Z,24.80
2018-12-21T07:40:09.193Z,24.80
2018-12-21T07:42:36.823Z,25.10
2018-12-21T07:45:06.398Z,25.20
2018-12-21T07:47:34.044Z,25.10
2018-12-21T07:50:01.664Z,24.80
2018-12-21T07:52:29.286Z,25.80
2018-12-21T07:54:56.915Z,25.70
2018-12-21T07:57:24.519Z,25.40
2018-12-21T07:59:52.120Z,25.60
2018-12-21T08:02:19.756Z,25.30
2018-12-21T08:04:47.357Z,25.00
2018-12-21T08:07:14.964Z,24.70
2018-12-21T08:09:42.646Z,24.40
2018-12-21T08:12:10.245Z,24.70
2018-12-21T08:14:37.852Z,24.40
2018-12-21T08:17:05.492Z,24.40
2018-12-21T08:19:33.111Z,24.90
2018-12-21T08:22:00.714Z,24.90
2018-12-21T08:24:28.345Z,24.80
2018-12-21T08:26:55.967Z,25.30
2018-12-21T08:29:23.808Z,25.10
2018-12-21T08:31:51.441Z,25.00
2018-12-21T08:34:19.054Z,24.90
2018-12-21T08:36:46.667Z,25.50
2018-12-21T08:39:14.305Z,25.30
2018-12-21T08:41:42.062Z,25.30
2018-12-21T08:44:09.676Z,25.30
2018-12-21T08:46:37.313Z,25.80
2018-12-21T08:49:04.922Z,26.00
2018-12-21T08:51:32.645Z,26.20
2018-12-21T08:54:00.279Z,26.10
2018-12-21T08:56:27.884Z,26.10
2018-12-21T08:58:55.491Z,26.30
2018-12-21T09:01:23.147Z,26.30
2018-12-21T09:03:50.761Z,26.50
2018-12-21T09:06:18.817Z,26.80
2018-12-21T09:08:46.759Z,26.20
2018-12-21T09:11:14.406Z,25.80
2018-12-21T09:13:42.008Z,25.80
2018-12-21T09:16:09.906Z,25.80
2018-12-21T09:18:37.540Z,25.40
2018-12-21T09:21:05.341Z,25.30
2018-12-21T09:23:32.966Z,25.40
2018-12-21T09:26:00.582Z,25.30
2018-12-21T09:28:28.194Z,25.10
2018-12-21T09:30:55.815Z,25.20
2018-12-21T09:33:23.434Z,25.70
2018-12-21T09:35:51.048Z,25.40
2018-12-21T09:38:18.679Z,25.20
2018-12-21T09:40:46.293Z,25.00
2018-12-21T09:43:13.995Z,24.90
2018-12-21T09:45:41.658Z,24.70
2018-12-21T09:48:09.267Z,24.80
2018-12-21T09:50:36.904Z,24.70
2018-12-21T09:53:04.536Z,24.80
2018-12-21T09:55:32.159Z,25.20
2018-12-21T09:57:59.766Z,25.20
2018-12-21T10:00:27.410Z,25.30
2018-12-21T10:02:55.015Z,25.70
2018-12-21T10:05:22.616Z,26.30
2018-12-21T10:07:50.266Z,26.40
2018-12-21T10:10:17.873Z,26.40
2018-12-21T10:12:45.534Z,26.20
2018-12-21T10:15:14.004Z,26.70
2018-12-21T10:17:41.623Z,26.80
2018-12-21T10:20:09.236Z,27.10
2018-12-21T10:22:36.870Z,27.70
2018-12-21T10:25:05.443Z,27.20
2018-12-21T10:27:33.041Z,27.20
2018-12-21T10:30:00.676Z,26.60
2018-12-21T10:32:28.287Z,26.70
2018-12-21T10:34:55.901Z,26.20
2018-12-21T10:37:23.558Z,26.20
2018-12-21T10:39:51.170Z,26.60
2018-12-21T10:42:18.774Z,26.70
2018-12-21T10:44:46.405Z,26.50
2018-12-21T10:47:14.010Z,26.70
2018-12-21T10:49:41.619Z,27.10
2018-12-21T10:52:09.272Z,27.40
2018-12-21T10:54:36.873Z,27.40
2018-12-21T11:03:49.927Z,27.60
2018-12-21T11:06:17.545Z,26.30
2018-12-21T11:08:45.169Z,26.10
2018-12-21T11:11:12.808Z,26.00
2018-12-21T11:13:40.471Z,26.00
2018-12-21T11:16:08.130Z,25.90
2018-12-21T11:18:35.763Z,26.20
2018-12-21T11:21:03.398Z,26.30
2018-12-21T11:23:31.021Z,26.90
2018-12-21T11:25:59.014Z,27.30
2018-12-21T11:28:26.629Z,27.30
2018-12-21T11:30:54.354Z,26.90
2018-12-21T11:33:22.024Z,26.90
2018-12-21T11:35:49.636Z,26.80
2018-12-21T11:38:17.247Z,27.60
2018-12-21T11:40:44.899Z,27.30
2018-12-21T11:43:12.490Z,27.20
2018-12-21T11:45:40.099Z,27.70
2018-12-21T11:48:07.741Z,28.00
2018-12-21T11:50:35.348Z,27.30
2018-12-21T11:53:02.951Z,28.70
2018-12-21T11:55:30.594Z,28.80
2018-12-21T11:57:58.195Z,28.10
2018-12-21T12:00:25.805Z,27.60
2018-12-21T12:02:53.443Z,27.10
2018-12-21T12:05:21.071Z,26.60
2018-12-21T12:07:48.681Z,26.40
2018-12-21T12:10:17.195Z,27.20
2018-12-21T12:12:44.822Z,26.90
2018-12-21T12:15:12.569Z,26.40
2018-12-21T12:17:40.259Z,26.40
2018-12-21T12:20:07.878Z,26.40
2018-12-21T12:22:35.498Z,26.00
2018-12-21T12:25:03.690Z,25.80
2018-12-21T12:27:31.316Z,25.60
2018-12-21T12:29:58.927Z,25.50
2018-12-21T12:32:26.570Z,25.40
2018-12-21T12:34:54.190Z,25.60
2018-12-21T12:37:21.800Z,25.90
2018-12-21T12:39:49.430Z,25.80
2018-12-21T12:42:17.054Z,26.90
2018-12-21T12:44:44.672Z,27.90
2018-12-21T12:47:12.327Z,27.20
2018-12-21T12:49:39.933Z,26.80
2018-12-21T12:52:07.545Z,26.60
2018-12-21T12:54:35.209Z,26.30
2018-12-21T12:57:02.822Z,27.00
2018-12-21T12:59:30.444Z,26.60
2018-12-21T13:01:58.557Z,26.20
2018-12-21T13:04:26.224Z,26.10
2018-12-21T13:06:53.841Z,26.10
2018-12-21T13:09:21.477Z,26.10
2018-12-21T13:11:49.086Z,25.80
2018-12-21T13:14:16.763Z,25.60
2018-12-21T13:16:44.475Z,25.40
2018-12-21T13:19:12.089Z,25.20
2018-12-21T13:21:39.707Z,25.00
2018-12-21T13:24:07.341Z,25.10
2018-12-21T13:26:34.959Z,25.30
2018-12-21T13:29:02.583Z,25.40
2018-12-21T13:31:30.222Z,25.30
2018-12-21T13:33:57.840Z,25.50
2018-12-21T13:36:25.457Z,25.40
2018-12-21T13:38:53.191Z,25.30
2018-12-21T13:41:20.806Z,25.30
2018-12-21T13:43:48.422Z,25.40
2018-12-21T13:46:16.046Z,26.10
2018-12-21T13:48:43.670Z,25.90
2018-12-21T13:51:11.280Z,25.70
2018-12-21T13:53:38.920Z,25.50
2018-12-21T13:56:06.535Z,26.00
2018-12-21T13:58:34.157Z,25.90
2018-12-21T14:01:01.800Z,26.00
2018-12-21T14:03:29.408Z,26.20
2018-12-21T14:05:57.025Z,25.90
2018-12-21T14:08:24.700Z,26.10
2018-12-21T14:10:52.401Z,26.10
2018-12-21T14:13:20.024Z,25.90
2018-12-21T14:15:47.716Z,26.80
2018-12-21T14:18:15.328Z,26.40
2018-12-21T14:20:42.966Z,26.20
2018-12-21T14:23:10.610Z,26.60
2018-12-21T14:25:38.233Z,26.60
2018-12-21T14:28:05.865Z,27.40
2018-12-21T14:30:33.511Z,27.40
2018-12-21T14:33:01.122Z,27.10
2018-12-21T14:35:28.748Z,26.70
2018-12-21T14:37:56.447Z,26.50
2018-12-21T14:40:24.068Z,26.40
2018-12-21T14:42:51.719Z,26.00
2018-12-21T14:45:19.435Z,26.50
2018-12-21T14:47:47.040Z,26.10
2018-12-21T14:50:14.660Z,26.10
2018-12-21T14:52:42.564Z,27.60
2018-12-21T14:55:10.172Z,27.20
2018-12-21T14:57:37.789Z,27.00
2018-12-21T15:00:09.661Z,26.90
2018-12-21T15:02:37.288Z,26.60
2018-12-21T15:05:06.968Z,26.40
2018-12-21T15:07:34.575Z,26.60
2018-12-21T15:10:02.295Z,26.80
2018-12-21T15:12:29.927Z,26.60
2018-12-21T15:14:57.526Z,27.20
2018-12-21T15:17:25.149Z,27.40
2018-12-21T15:19:52.789Z,26.90
2018-12-21T15:22:20.401Z,26.70
2018-12-21T15:24:48.770Z,27.00
2018-12-21T15:27:16.509Z,27.00
2018-12-21T15:29:44.130Z,26.90
2018-12-21T15:32:11.797Z,27.00
2018-12-21T15:34:39.445Z,26.70
2018-12-21T15:37:07.064Z,26.50
2018-12-21T15:39:34.688Z,26.90
2018-12-21T15:42:02.593Z,26.80
2018-12-21T15:44:30.282Z,26.70
2018-12-21T15:46:57.884Z,26.50
2018-12-21T15:49:25.612Z,26.40
2018-12-21T15:51:53.287Z,26.80
2018-12-21T15:54:20.892Z,27.80
2018-12-21T15:56:48.534Z,29.40
2018-12-21T15:59:16.143Z,29.70
2018-12-21T16:01:43.747Z,30.70
2018-12-21T16:04:11.391Z,29.80
2018-12-21T16:06:39.006Z,29.40
2018-12-21T16:09:06.947Z,30.20
2018-12-21T16:11:34.630Z,29.70
2018-12-21T16:14:02.475Z,29.30
2018-12-21T16:16:30.083Z,31.20
2018-12-21T16:18:57.732Z,31.00
2018-12-21T16:21:25.443Z,30.00
2018-12-21T16:23:53.237Z,30.00
2018-12-21T16:26:20.868Z,30.00
2018-12-21T16:28:48.487Z,30.10
2018-12-21T16:31:16.108Z,30.00
2018-12-21T16:33:43.745Z,29.70
2018-12-21T16:36:11.573Z,29.10
2018-12-21T16:38:39.306Z,28.60
2018-12-21T16:41:07.215Z,29.00
2018-12-21T16:43:34.967Z,28.50
2018-12-21T16:46:02.776Z,28.30
2018-12-21T16:48:30.547Z,28.30
2018-12-21T16:50:58.245Z,28.90
2018-12-21T16:53:25.851Z,28.80
2018-12-21T16:55:53.794Z,30.00
2018-12-21T16:58:21.409Z,31.50
2018-12-21T17:00:49.033Z,31.40
2018-12-21T17:03:16.755Z,31.90
2018-12-21T17:05:44.371Z,32.80
2018-12-21T17:08:12.074Z,32.90
2018-12-21T17:10:39.716Z,32.20
2018-12-21T17:13:07.339Z,33.00
2018-12-21T17:15:34.955Z,31.20
2018-12-21T17:18:02.654Z,32.90
2018-12-21T17:20:30.287Z,33.10
2018-12-21T17:22:57.891Z,31.80
2018-12-21T17:25:25.526Z,30.60
2018-12-21T17:27:53.126Z,29.80
2018-12-21T17:30:20.727Z,29.30
2018-12-21T17:32:48.362Z,28.80
2018-12-21T17:35:16.328Z,28.20
2018-12-21T17:37:43.927Z,28.90
2018-12-21T17:40:11.564Z,28.90
2018-12-21T17:42:39.342Z,41.50
2018-12-21T17:45:07.903Z,30.80
2018-12-21T17:47:35.880Z,30.90
2018-12-21T17:50:06.361Z,30.40
2018-12-21T17:52:33.963Z,33.70
2018-12-21T17:55:01.571Z,30.00
2018-12-21T17:57:29.457Z,37.70
2018-12-21T17:59:57.241Z,37.10
2018-12-21T18:02:25.105Z,35.50
2018-12-21T18:04:52.725Z,31.00
2018-12-21T18:07:20.349Z,35.50
2018-12-21T18:09:47.956Z,32.90
2018-12-21T18:14:43.305Z,33.00
2018-12-21T18:17:10.932Z,32.70
2018-12-21T18:19:38.577Z,33.00
2018-12-21T18:22:06.722Z,30.00
2018-12-21T18:24:34.343Z,29.70
2018-12-21T18:27:01.962Z,29.20
2018-12-21T18:29:30.406Z,28.70
2018-12-21T18:31:58.160Z,28.50
2018-12-21T18:34:28.902Z,28.30
2018-12-21T18:36:56.626Z,28.10
2018-12-21T18:39:24.260Z,29.10
2018-12-21T18:41:51.894Z,29.00
2018-12-21T18:44:19.503Z,28.50
2018-12-21T18:46:47.103Z,28.60
2018-12-21T18:49:14.729Z,28.50
2018-12-21T18:51:42.350Z,28.10
2018-12-21T18:54:10.045Z,27.50
2018-12-21T18:56:47.180Z,28.30
2018-12-21T18:59:11.394Z,27.90
2018-12-21T19:01:38.997Z,28.20
2018-12-21T19:04:06.861Z,28.90
2018-12-21T19:06:34.778Z,28.90
2018-12-21T19:09:02.611Z,28.60
2018-12-21T19:11:30.221Z,29.10
2018-12-21T19:13:57.832Z,29.40
2018-12-21T19:16:25.527Z,29.30
2018-12-21T19:18:53.204Z,29.10
2018-12-21T19:21:20.806Z,29.10
2018-12-21T19:23:48.728Z,28.90
2018-12-21T19:26:16.330Z,28.90
2018-12-21T19:28:43.928Z,28.70
2018-12-21T19:31:11.571Z,28.30
2018-12-21T19:33:39.184Z,28.00
2018-12-21T19:36:06.820Z,27.90
2018-12-21T19:38:34.469Z,28.10
2018-12-21T19:41:02.969Z,27.70
2018-12-21T19:43:30.590Z,27.60
2018-12-21T19:45:58.223Z,27.50
2018-12-21T19:48:25.832Z,28.70
2018-12-21T19:50:53.446Z,28.50
2018-12-21T19:53:21.084Z,28.80
2018-12-21T19:55:49.965Z,28.60
2018-12-21T19:58:17.580Z,29.30
2018-12-21T20:00:45.212Z,29.00
2018-12-21T20:03:13.512Z,28.90
2018-12-21T20:05:41.138Z,28.40
2018-12-21T20:08:08.783Z,28.40
2018-12-21T20:10:36.395Z,28.20
2018-12-21T20:13:04.008Z,28.30
2018-12-21T20:15:31.643Z,28.20
2018-12-21T20:17:59.250Z,28.00
2018-12-21T20:20:26.860Z,29.40
2018-12-21T20:22:54.626Z,29.30
2018-12-21T20:25:22.240Z,29.90
2018-12-21T20:27:50.515Z,30.40
2018-12-21T20:30:18.461Z,29.80
2018-12-21T20:32:46.169Z,30.00
2018-12-21T20:35:13.909Z,30.30
2018-12-21T20:37:41.551Z,29.90
2018-12-21T20:40:11.442Z,30.10
2018-12-21T20:42:40.623Z,30.70
2018-12-21T20:45:10.687Z,31.50
2018-12-21T20:47:38.342Z,32.10
2018-12-21T20:50:11.336Z,31.40
2018-12-21T20:52:40.505Z,36.20
2018-12-21T20:55:10.781Z,36.50
2018-12-21T20:57:41.177Z,37.50
2018-12-21T21:00:12.897Z,33.90
2018-12-21T21:02:41.382Z,35.90
2018-12-21T21:07:37.432Z,38.90
2018-12-21T21:10:10.293Z,33.00
2018-12-21T21:12:37.915Z,34.10
2018-12-21T21:15:12.789Z,33.30
2018-12-21T21:17:40.399Z,34.00
2018-12-21T21:20:13.556Z,33.50
2018-12-21T21:22:42.170Z,34.40
2018-12-21T21:25:09.966Z,32.90
2018-12-21T21:27:37.627Z,32.50
2018-12-21T21:30:09.353Z,32.90
2018-12-21T21:32:36.996Z,31.50
2018-12-21T21:35:05.481Z,31.30
2018-12-21T21:37:33.108Z,30.60
2018-12-21T21:40:02.159Z,30.00
2018-12-21T21:42:30.607Z,29.30
2018-12-21T21:44:58.290Z,29.60
2018-12-21T21:47:25.947Z,29.20
2018-12-21T21:49:54.074Z,30.00
2018-12-21T21:52:23.863Z,29.60
2018-12-21T21:54:51.725Z,29.50
2018-12-21T21:57:19.561Z,29.50
2018-12-21T21:59:47.211Z,29.80
2018-12-21T22:02:14.866Z,29.00
2018-12-21T22:04:42.627Z,29.30
2018-12-21T22:07:10.252Z,29.00
2018-12-21T22:09:37.868Z,28.90
2018-12-21T22:12:05.481Z,29.00
2018-12-21T22:14:33.230Z,29.50
2018-12-21T22:17:00.842Z,29.50
2018-12-21T22:19:28.480Z,29.20
2018-12-21T22:21:56.127Z,29.10
2018-12-21T22:24:23.730Z,29.70
2018-12-21T22:26:51.469Z,30.00
2018-12-21T22:29:19.120Z,29.80
2018-12-21T22:31:46.745Z,29.80
2018-12-21T22:34:15.442Z,29.50
2018-12-21T22:36:43.505Z,29.40
2018-12-21T22:39:11.213Z,30.10
2018-12-21T22:41:38.864Z,30.80
2018-12-21T22:44:06.523Z,29.70
2018-12-21T22:46:34.271Z,29.70
2018-12-21T22:49:01.874Z,29.20
2018-12-21T22:51:29.531Z,29.70
2018-12-21T22:53:57.143Z,30.00
2018-12-21T22:56:24.746Z,31.40
2018-12-21T22:58:52.375Z,33.00
2018-12-21T23:01:20.003Z,33.30
2018-12-21T23:03:47.623Z,36.10
2018-12-21T23:06:15.259Z,35.70
2018-12-21T23:08:42.963Z,35.10
2018-12-21T23:11:10.592Z,35.60
2018-12-21T23:13:38.238Z,36.40
2018-12-21T23:16:05.912Z,36.60
2018-12-21T23:18:33.527Z,35.30
2018-12-21T23:21:01.298Z,34.90
2018-12-21T23:23:28.894Z,35.80
2018-12-21T23:25:56.500Z,36.50
2018-12-21T23:28:24.170Z,36.00
2018-12-21T23:30:51.784Z,36.70
2018-12-21T23:33:19.389Z,37.10
2018-12-21T23:35:47.028Z,37.10
2018-12-21T23:38:14.642Z,38.20
2018-12-21T23:40:42.241Z,37.90
2018-12-21T23:43:09.879Z,38.40
2018-12-21T23:45:37.495Z,37.70
2018-12-21T23:48:06.596Z,36.20
2018-12-21T23:50:35.822Z,35.20
2018-12-21T23:53:03.480Z,36.10
2018-12-21T23:55:31.084Z,38.40
2018-12-21T23:57:58.706Z,40.20
